Star Clipper — 9HA2513 — position and weather

sailwx.info

Track history (hours):
 
Tides and Currents Weather Stations Pressure Air Temp Water Temp Dewpoint Dewpoint Depression Visibility Wind Speed Wind Dir Waves Ship Positions

Star Clipper

Last reported at 2018-Oct-27 15:21 UTC. Time now 2018-Dec-10 23:47 UTC.
Position N 01°15' E 103°25'.
Warning: this ship's position is 44 days out of date.

Length 111 m; draft 5.9 m.

Type: Other ship. MMSI: 248786000.

Date/timePositionNaut miles runAvg speedWind from/ knotsBaromVisibWave heightAir tempDewpointWater temp
2018-Oct-27 15:21N 01°15' E 103°25'6 7.5
2018-Oct-27 14:33N 01°13' E 103°31'1 7.4
2018-Oct-27 14:27N 01°13' E 103°31'5 7.7
2018-Oct-27 13:45N 01°12' E 103°37'3 7.8
2018-Oct-27 13:21N 01°12' E 103°40'3 8.4
2018-Oct-27 12:57N 01°10' E 103°43'3 7.1
2018-Oct-27 12:28N 01°10' E 103°46'4 8.0
2018-Oct-27 11:58N 01°11' E 103°50'5 5.0
2018-Oct-27 10:58N 01°16' E 103°52'0 0.1
2018-Oct-27 09:10N 01°16' E 103°52'0 0.0
2018-Oct-27 08:04N 01°16' E 103°52'0 0.0
2018-Oct-27 07:46N 01°16' E 103°52'0 0.0
2018-Oct-27 07:16N 01°16' E 103°52'0 0.0
2018-Oct-27 05:10N 01°16' E 103°52'0 0.0
2018-Oct-27 03:28N 01°16' E 103°52'0 0.0
2018-Oct-27 02:10N 01°16' E 103°52'0 0.0
2018-Oct-27 01:58N 01°16' E 103°52'0 0.0
2018-Oct-27 01:28N 01°16' E 103°52'0 0.0
2018-Oct-27 00:58N 01°16' E 103°52'0 0.0
2018-Oct-27 00:16N 01°16' E 103°52'0 0.0
2018-Oct-26 23:52N 01°16' E 103°52'0 0.0
2018-Oct-26 23:28N 01°16' E 103°52'1 1.3
2018-Oct-26 22:58N 01°15' E 103°52'3 5.5
2018-Oct-26 22:22N 01°14' E 103°55'  
Track history (hours):
 
Tides and Currents Weather Stations Pressure Air Temp Water Temp Dewpoint Dewpoint Depression Visibility Wind Speed Wind Dir Waves Ship Positions

Star Clipper

Last reported at 2018-Oct-27 15:21 UTC. Time now 2018-Dec-10 23:47 UTC.
Position N 01°15' E 103°25'.
Warning: this ship's position is 44 days out of date.

Length 111 m; draft 5.9 m.

Type: Other ship. MMSI: 248786000.

Date/timePositionNaut miles runAvg speedWind from/ knotsBaromVisibWave heightAir tempDewpointWater temp
2018-Oct-27 15:21N 01°15' E 103°25'6 7.5
2018-Oct-27 14:33N 01°13' E 103°31'1 7.4
2018-Oct-27 14:27N 01°13' E 103°31'5 7.7
2018-Oct-27 13:45N 01°12' E 103°37'3 7.8
2018-Oct-27 13:21N 01°12' E 103°40'3 8.4
2018-Oct-27 12:57N 01°10' E 103°43'3 7.1
2018-Oct-27 12:28N 01°10' E 103°46'4 8.0
2018-Oct-27 11:58N 01°11' E 103°50'5 5.0
2018-Oct-27 10:58N 01°16' E 103°52'0 0.1
2018-Oct-27 09:10N 01°16' E 103°52'0 0.0
2018-Oct-27 08:04N 01°16' E 103°52'0 0.0
2018-Oct-27 07:46N 01°16' E 103°52'0 0.0
2018-Oct-27 07:16N 01°16' E 103°52'0 0.0
2018-Oct-27 05:10N 01°16' E 103°52'0 0.0
2018-Oct-27 03:28N 01°16' E 103°52'0 0.0
2018-Oct-27 02:10N 01°16' E 103°52'0 0.0
2018-Oct-27 01:58N 01°16' E 103°52'0 0.0
2018-Oct-27 01:28N 01°16' E 103°52'0 0.0
2018-Oct-27 00:58N 01°16' E 103°52'0 0.0
2018-Oct-27 00:16N 01°16' E 103°52'0 0.0
2018-Oct-26 23:52N 01°16' E 103°52'0 0.0
2018-Oct-26 23:28N 01°16' E 103°52'1 1.3
2018-Oct-26 22:58N 01°15' E 103°52'3 5.5
2018-Oct-26 22:22N 01°14' E 103°55'  

Dump ship's entire track history